Time;durP1;ratioP1;P1;durP2;ratioP2;P2;SDS_P1;SDS_P2;PMS_P1;PMS_P2;Temp;Humidity;BMP_temperature;BMP_pressure;BME280_temperature;BME280_humidity;BME280_pressure;Samples;Min_cycle;Max_cycle;Signal;HPM_P1;HPM_P2
2023/12/16 00:01:08;;;;;;;27.73;12.47;;;6.70;99.90;;;;;;5021729;28;20218;-63
2023/12/16 00:03:34;;;;;;;26.70;14.07;;;6.70;99.90;;;;;;5020419;28;20413;-62
2023/12/16 00:06:00;;;;;;;30.40;13.97;;;6.70;99.90;;;;;;5025775;28;20537;-63
2023/12/16 00:08:25;;;;;;;36.87;15.43;;;6.70;99.90;;;;;;5020862;28;20183;-63
2023/12/16 00:10:51;;;;;;;23.17;14.37;;;6.70;99.90;;;;;;5024090;28;20427;-63
2023/12/16 00:13:16;;;;;;;32.50;13.27;;;6.80;99.90;;;;;;5023981;28;20229;-63
2023/12/16 00:15:42;;;;;;;52.70;25.17;;;6.80;99.90;;;;;;5016277;28;20184;-60
2023/12/16 00:18:07;;;;;;;36.50;19.43;;;6.80;99.90;;;;;;5027102;28;20231;-63
2023/12/16 00:20:33;;;;;;;29.17;15.50;;;6.80;99.90;;;;;;5023882;28;20733;-68
2023/12/16 00:22:59;;;;;;;30.37;14.00;;;6.90;99.90;;;;;;5022341;28;20690;-66
2023/12/16 00:25:24;;;;;;;20.60;12.87;;;6.90;99.90;;;;;;5008848;28;20173;-62
2023/12/16 00:27:50;;;;;;;28.07;13.97;;;6.90;99.90;;;;;;5019206;28;20176;-64
2023/12/16 00:30:16;;;;;;;24.00;14.23;;;6.90;99.90;;;;;;5018009;28;20235;-62
2023/12/16 00:32:42;;;;;;;29.73;13.97;;;6.80;99.90;;;;;;5014506;28;20597;-63
2023/12/16 00:35:08;;;;;;;28.47;14.77;;;6.80;99.90;;;;;;5017522;28;20441;-63
2023/12/16 00:37:34;;;;;;;30.77;12.73;;;6.80;99.90;;;;;;5014693;28;20964;-63
2023/12/16 00:40:01;;;;;;;30.43;13.93;;;6.90;99.90;;;;;;5020902;28;20455;-62
2023/12/16 00:42:27;;;;;;;27.87;13.33;;;6.90;99.90;;;;;;5017948;28;20430;-61
2023/12/16 00:44:53;;;;;;;29.40;13.30;;;6.90;99.90;;;;;;5018671;28;20914;-62
2023/12/16 00:47:19;;;;;;;30.37;14.03;;;6.80;99.90;;;;;;5017464;28;20496;-62
2023/12/16 00:49:44;;;;;;;29.10;15.53;;;6.90;99.90;;;;;;5022738;28;21140;-62
2023/12/16 00:52:10;;;;;;;31.97;13.80;;;6.80;99.90;;;;;;5022630;28;20841;-62
2023/12/16 00:54:35;;;;;;;38.53;14.00;;;6.90;99.90;;;;;;5015622;28;20245;-62
2023/12/16 00:57:01;;;;;;;26.00;14.43;;;6.90;99.90;;;;;;5024960;28;20165;-62
2023/12/16 00:59:27;;;;;;;27.87;13.90;;;6.90;99.90;;;;;;5018612;28;20185;-62
2023/12/16 01:01:52;;;;;;;26.10;14.23;;;7.00;99.90;;;;;;5025602;28;20213;-63
2023/12/16 01:04:18;;;;;;;23.67;16.70;;;6.90;99.90;;;;;;5022074;28;20173;-62
2023/12/16 01:06:44;;;;;;;33.17;13.70;;;7.00;99.90;;;;;;5027096;28;20414;-62
2023/12/16 01:09:10;;;;;;;25.00;12.40;;;6.90;99.90;;;;;;5022982;28;20179;-63
2023/12/16 01:11:36;;;;;;;36.13;15.97;;;6.90;99.90;;;;;;5028771;28;20203;-62
2023/12/16 01:14:01;;;;;;;21.33;12.27;;;6.90;99.90;;;;;;5024641;28;20416;-62
2023/12/16 01:16:27;;;;;;;24.60;14.00;;;6.80;99.90;;;;;;5031829;28;20183;-63
2023/12/16 01:18:53;;;;;;;36.70;14.87;;;6.80;99.90;;;;;;5022228;28;20169;-63
2023/12/16 01:21:19;;;;;;;26.90;14.77;;;6.80;99.90;;;;;;5024822;28;20556;-62
2023/12/16 01:23:45;;;;;;;32.40;13.73;;;6.80;99.90;;;;;;5024506;28;20462;-62
2023/12/16 01:26:11;;;;;;;26.57;13.77;;;6.80;99.90;;;;;;5017090;28;20165;-63
2023/12/16 01:28:37;;;;;;;30.00;14.80;;;6.80;99.90;;;;;;5026827;28;20170;-63
2023/12/16 01:31:03;;;;;;;34.57;13.30;;;6.90;99.90;;;;;;5022962;28;20983;-63
2023/12/16 01:33:29;;;;;;;24.80;13.73;;;6.90;99.90;;;;;;5027669;28;20499;-63
2023/12/16 01:35:55;;;;;;;27.77;13.77;;;6.90;99.90;;;;;;5020699;28;20194;-63
2023/12/16 01:38:21;;;;;;;29.60;11.83;;;6.90;99.90;;;;;;5019834;28;20978;-61
2023/12/16 01:40:46;;;;;;;29.43;12.77;;;6.80;99.90;;;;;;5020873;28;20218;-62
2023/12/16 01:43:12;;;;;;;25.90;12.33;;;6.90;99.90;;;;;;5022333;28;20416;-62
2023/12/16 01:45:38;;;;;;;24.80;12.23;;;6.80;99.90;;;;;;5020546;28;20174;-60
2023/12/16 01:48:04;;;;;;;22.67;12.77;;;6.90;99.90;;;;;;5010793;28;20181;-62
2023/12/16 01:50:31;;;;;;;26.57;13.93;;;6.80;99.90;;;;;;5017340;28;20283;-61
2023/12/16 01:52:57;;;;;;;27.63;13.47;;;6.90;99.90;;;;;;5023638;28;20890;-61
2023/12/16 01:55:24;;;;;;;24.53;13.37;;;6.90;99.90;;;;;;5025120;28;20498;-62
2023/12/16 01:57:50;;;;;;;24.90;12.90;;;6.90;99.90;;;;;;5025829;28;20495;-61
2023/12/16 02:00:16;;;;;;;32.97;13.37;;;6.90;99.90;;;;;;5024734;28;20471;-62
2023/12/16 02:02:42;;;;;;;28.60;13.97;;;6.90;99.90;;;;;;5029267;28;20494;-61
2023/12/16 02:05:09;;;;;;;28.87;13.00;;;6.90;99.90;;;;;;5022410;28;20994;-62
2023/12/16 02:07:34;;;;;;;27.83;12.10;;;6.90;99.90;;;;;;5024003;28;20424;-60
2023/12/16 02:10:01;;;;;;;41.63;13.67;;;6.90;99.90;;;;;;5019108;28;20489;-62
2023/12/16 02:12:27;;;;;;;26.00;13.73;;;6.90;99.90;;;;;;5023380;28;20180;-60
2023/12/16 02:14:53;;;;;;;20.80;12.10;;;6.90;99.90;;;;;;5024178;28;20914;-62
2023/12/16 02:17:18;;;;;;;25.30;13.43;;;6.90;99.90;;;;;;5027982;28;20502;-62
2023/12/16 02:19:46;;;;;;;28.63;12.50;;;6.90;99.90;;;;;;5016451;28;20179;-62
2023/12/16 02:22:11;;;;;;;24.30;13.13;;;6.90;99.90;;;;;;5029622;28;20180;-62
2023/12/16 02:24:38;;;;;;;20.00;11.40;;;6.90;99.90;;;;;;5023634;28;20411;-62
2023/12/16 02:27:04;;;;;;;23.80;13.80;;;6.90;99.90;;;;;;5021312;28;20256;-62
2023/12/16 02:29:30;;;;;;;22.87;12.00;;;6.90;99.90;;;;;;5012887;28;20522;-62
2023/12/16 02:31:55;;;;;;;37.43;13.50;;;6.90;99.90;;;;;;5016903;28;20953;-62
2023/12/16 02:34:23;;;;;;;17.87;9.77;;;6.90;99.90;;;;;;5028284;28;20173;-61
2023/12/16 02:36:49;;;;;;;28.50;14.70;;;6.90;99.90;;;;;;5019298;28;20549;-61
2023/12/16 02:39:14;;;;;;;29.87;13.20;;;6.90;99.90;;;;;;5025979;28;20426;-61
2023/12/16 02:41:40;;;;;;;27.37;13.63;;;6.90;99.90;;;;;;5019015;28;20677;-61
2023/12/16 02:44:06;;;;;;;22.00;12.33;;;6.90;99.90;;;;;;5018559;28;20181;-62
2023/12/16 02:46:31;;;;;;;23.00;11.73;;;6.90;99.90;;;;;;5025230;28;20674;-61
2023/12/16 02:48:57;;;;;;;29.13;12.43;;;6.90;99.90;;;;;;5020049;28;20682;-61
2023/12/16 02:51:22;;;;;;;23.60;12.30;;;6.90;99.90;;;;;;5025300;28;20199;-61
2023/12/16 02:53:48;;;;;;;28.33;12.50;;;6.90;99.90;;;;;;5016799;28;20251;-61
2023/12/16 02:56:13;;;;;;;25.00;11.90;;;6.90;99.90;;;;;;5026916;28;20634;-61
2023/12/16 02:58:39;;;;;;;21.40;10.87;;;6.90;99.90;;;;;;5020976;28;20202;-61
2023/12/16 03:01:06;;;;;;;26.33;13.60;;;6.80;99.90;;;;;;5018835;28;20826;-62
2023/12/16 03:03:31;;;;;;;22.77;11.33;;;6.90;99.90;;;;;;5019463;28;20185;-62
2023/12/16 03:05:57;;;;;;;36.03;13.30;;;6.90;99.90;;;;;;5017596;28;20933;-62
2023/12/16 03:08:23;;;;;;;23.60;9.97;;;6.80;99.90;;;;;;5019064;28;20200;-62
2023/12/16 03:10:48;;;;;;;23.40;12.47;;;6.80;99.90;;;;;;5019041;28;20287;-62
2023/12/16 03:13:14;;;;;;;24.53;11.53;;;6.80;99.90;;;;;;5021906;28;20583;-62
2023/12/16 03:15:39;;;;;;;21.20;12.67;;;6.80;99.90;;;;;;5018614;28;20721;-62
2023/12/16 03:18:05;;;;;;;21.80;12.83;;;6.80;99.90;;;;;;5018468;28;20188;-63
2023/12/16 03:20:30;;;;;;;29.40;13.00;;;6.80;99.90;;;;;;5026940;28;20734;-60
2023/12/16 03:22:56;;;;;;;30.53;11.93;;;6.80;99.90;;;;;;5021151;28;20176;-61
2023/12/16 03:25:22;;;;;;;29.10;13.27;;;6.90;99.90;;;;;;5024778;28;20173;-62
2023/12/16 03:27:47;;;;;;;44.13;14.93;;;6.90;99.90;;;;;;5019018;28;20168;-62
2023/12/16 03:30:13;;;;;;;26.70;14.40;;;6.90;99.90;;;;;;5018145;28;20451;-63
2023/12/16 03:32:39;;;;;;;24.80;12.23;;;6.90;99.90;;;;;;5024407;28;20255;-62
2023/12/16 03:35:05;;;;;;;36.43;13.73;;;6.90;99.90;;;;;;5023085;28;20222;-62
2023/12/16 03:37:31;;;;;;;29.97;13.00;;;6.90;99.90;;;;;;5026637;28;20177;-62
2023/12/16 03:39:56;;;;;;;28.60;14.23;;;7.00;99.90;;;;;;5019618;28;20435;-62
2023/12/16 03:42:22;;;;;;;22.33;13.10;;;7.00;99.90;;;;;;5031109;28;20164;-62
2023/12/16 03:44:48;;;;;;;23.80;13.17;;;7.00;99.90;;;;;;5023942;28;20332;-62
2023/12/16 03:47:13;;;;;;;32.00;15.80;;;7.00;99.90;;;;;;5023685;28;20768;-63
2023/12/16 03:49:40;;;;;;;28.00;15.07;;;7.00;99.90;;;;;;5022574;28;20227;-62
2023/12/16 03:52:06;;;;;;;23.83;14.00;;;7.00;99.90;;;;;;5021145;28;20455;-62
2023/12/16 03:54:32;;;;;;;38.80;16.10;;;7.00;99.90;;;;;;5028148;28;20911;-63
2023/12/16 03:56:57;;;;;;;32.60;15.80;;;7.00;99.90;;;;;;5020842;28;20510;-62
2023/12/16 03:59:23;;;;;;;35.97;15.00;;;7.00;99.90;;;;;;5026191;28;20662;-62
2023/12/16 04:01:48;;;;;;;33.10;16.00;;;7.00;99.90;;;;;;5021640;28;20205;-64
2023/12/16 04:04:14;;;;;;;33.20;14.13;;;6.90;99.90;;;;;;5021475;28;20190;-62
2023/12/16 04:06:39;;;;;;;28.77;16.57;;;7.00;99.90;;;;;;5022983;28;20184;-62
2023/12/16 04:09:05;;;;;;;29.63;13.37;;;7.00;99.90;;;;;;5018729;28;20258;-62
2023/12/16 04:11:31;;;;;;;35.50;16.07;;;7.00;99.90;;;;;;5021852;28;20197;-61
2023/12/16 04:13:56;;;;;;;33.97;16.27;;;7.10;99.90;;;;;;5020571;28;20173;-62
2023/12/16 04:16:22;;;;;;;33.67;16.50;;;7.10;99.90;;;;;;5024490;28;20170;-63
2023/12/16 04:18:47;;;;;;;32.77;16.20;;;7.00;99.90;;;;;;5019945;28;20185;-62
2023/12/16 04:21:13;;;;;;;32.97;16.73;;;7.20;99.90;;;;;;5027662;28;20210;-61
2023/12/16 04:23:39;;;;;;;23.60;14.40;;;7.10;99.90;;;;;;5026594;28;20166;-62
2023/12/16 04:26:04;;;;;;;37.30;17.17;;;7.10;99.90;;;;;;5023942;28;20172;-63
2023/12/16 04:28:30;;;;;;;35.63;16.43;;;7.20;99.90;;;;;;5022985;28;20180;-62
2023/12/16 04:30:55;;;;;;;35.13;15.50;;;7.10;99.90;;;;;;5018691;28;20230;-63
2023/12/16 04:33:21;;;;;;;37.50;17.80;;;7.20;99.90;;;;;;5027079;28;20609;-63
2023/12/16 04:35:46;;;;;;;31.60;16.83;;;7.40;99.90;;;;;;5023981;28;20259;-62
2023/12/16 04:38:12;;;;;;;24.87;14.30;;;7.40;99.90;;;;;;5021439;28;20177;-62
2023/12/16 04:40:38;;;;;;;29.20;14.97;;;7.20;99.90;;;;;;5022156;28;20244;-61
2023/12/16 04:43:03;;;;;;;34.53;14.77;;;7.20;99.90;;;;;;5024621;28;20666;-61
2023/12/16 04:45:29;;;;;;;28.20;15.27;;;7.20;99.90;;;;;;5027274;28;20178;-62
2023/12/16 04:47:55;;;;;;;35.03;14.83;;;7.10;99.90;;;;;;5017251;28;20181;-62
2023/12/16 04:50:20;;;;;;;28.40;14.90;;;7.20;99.90;;;;;;5020159;28;20200;-62
2023/12/16 04:52:46;;;;;;;28.80;14.53;;;7.20;99.90;;;;;;5019525;28;20639;-62
2023/12/16 04:55:12;;;;;;;27.93;13.93;;;7.00;99.90;;;;;;5023766;28;20653;-61
2023/12/16 04:57:38;;;;;;;20.73;14.70;;;7.10;99.90;;;;;;5022695;28;20420;-61
2023/12/16 05:00:04;;;;;;;35.10;16.20;;;7.00;99.90;;;;;;5017917;28;20198;-62
2023/12/16 05:02:30;;;;;;;29.40;16.63;;;7.00;99.90;;;;;;5021930;28;20602;-61
2023/12/16 05:04:56;;;;;;;29.50;14.80;;;7.10;99.90;;;;;;5020096;28;20420;-61
2023/12/16 05:07:21;;;;;;;29.97;16.97;;;7.20;99.90;;;;;;5023532;28;20416;-62
2023/12/16 05:09:47;;;;;;;30.10;15.10;;;7.20;99.90;;;;;;5015512;28;20545;-64
2023/12/16 05:12:13;;;;;;;34.47;15.30;;;7.30;99.90;;;;;;5022046;28;20516;-62
2023/12/16 05:14:41;;;;;;;30.77;14.90;;;7.30;99.90;;;;;;5019712;28;20180;-61
2023/12/16 05:17:07;;;;;;;32.27;15.40;;;7.20;99.90;;;;;;5019886;28;20519;-62
2023/12/16 05:19:33;;;;;;;28.93;16.67;;;7.10;99.90;;;;;;5021597;28;20462;-62
2023/12/16 05:21:58;;;;;;;22.60;13.50;;;7.20;99.90;;;;;;5028168;28;20835;-61
2023/12/16 05:24:24;;;;;;;24.30;14.60;;;7.00;99.90;;;;;;5023018;28;20182;-64
2023/12/16 05:26:50;;;;;;;33.37;15.00;;;7.00;99.90;;;;;;5025593;28;20161;-62
2023/12/16 05:29:16;;;;;;;26.13;13.90;;;7.10;99.90;;;;;;5018520;28;20603;-62
2023/12/16 05:31:41;;;;;;;30.17;16.20;;;7.10;99.90;;;;;;5028072;28;20514;-62
2023/12/16 05:34:07;;;;;;;27.90;13.90;;;7.00;99.90;;;;;;5022839;28;20180;-62
2023/12/16 05:36:33;;;;;;;35.20;15.00;;;7.00;99.90;;;;;;5016947;28;20259;-61
2023/12/16 05:38:58;;;;;;;29.63;15.27;;;7.00;99.90;;;;;;5016895;28;20181;-62
2023/12/16 05:41:24;;;;;;;32.80;15.53;;;6.90;99.90;;;;;;5019873;28;20212;-62
2023/12/16 05:43:49;;;;;;;27.93;13.93;;;6.80;99.90;;;;;;5024763;28;20517;-62
2023/12/16 05:46:15;;;;;;;31.23;15.30;;;6.90;99.90;;;;;;5019617;28;20228;-61
2023/12/16 05:48:40;;;;;;;34.60;17.03;;;6.80;99.90;;;;;;5018852;28;20176;-62
2023/12/16 05:51:06;;;;;;;40.57;14.70;;;6.80;99.90;;;;;;5018919;28;20195;-62
2023/12/16 05:53:35;;;;;;;34.07;15.00;;;6.70;99.90;;;;;;5017688;28;20195;-62
2023/12/16 05:56:04;;;;;;;28.47;13.70;;;6.70;99.90;;;;;;5022884;28;20194;-62
2023/12/16 05:58:29;;;;;;;23.60;13.63;;;6.80;99.90;;;;;;5017558;28;20828;-62
2023/12/16 06:00:56;;;;;;;27.57;14.20;;;6.90;99.90;;;;;;5020095;28;20602;-61
2023/12/16 06:03:22;;;;;;;26.67;15.30;;;6.90;99.90;;;;;;5017670;28;20432;-62
2023/12/16 06:05:48;;;;;;;35.07;15.70;;;7.00;99.90;;;;;;5026246;28;20200;-62
2023/12/16 06:08:13;;;;;;;24.23;13.07;;;6.90;99.90;;;;;;5016301;28;20464;-61
2023/12/16 06:10:39;;;;;;;23.17;14.30;;;6.90;99.90;;;;;;5021420;28;20291;-62
2023/12/16 06:13:05;;;;;;;28.13;13.27;;;7.10;99.90;;;;;;5019408;28;20181;-63
2023/12/16 06:15:30;;;;;;;30.30;13.33;;;7.10;99.90;;;;;;5015719;28;20984;-62
2023/12/16 06:17:57;;;;;;;27.13;14.07;;;7.20;99.90;;;;;;5014579;28;20228;-62
2023/12/16 06:20:23;;;;;;;27.70;12.27;;;7.10;99.90;;;;;;5026443;28;20568;-63
2023/12/16 06:22:48;;;;;;;24.80;13.37;;;7.10;99.90;;;;;;5021167;28;20442;-63
2023/12/16 06:25:14;;;;;;;35.77;13.93;;;7.20;99.90;;;;;;5021765;28;20168;-62
2023/12/16 06:27:40;;;;;;;29.33;12.63;;;7.10;99.90;;;;;;5017468;28;20273;-62
2023/12/16 06:30:08;;;;;;;24.23;13.07;;;7.30;99.90;;;;;;5023222;28;20649;-62
2023/12/16 06:32:34;;;;;;;23.47;11.93;;;7.20;99.90;;;;;;5023269;28;20404;-61
2023/12/16 06:35:00;;;;;;;21.20;12.60;;;7.30;99.90;;;;;;5020941;28;20422;-63
2023/12/16 06:37:25;;;;;;;24.30;13.20;;;7.30;99.90;;;;;;5018599;28;20680;-63
2023/12/16 06:39:51;;;;;;;23.20;13.77;;;7.30;99.90;;;;;;5015419;28;20413;-63
2023/12/16 06:42:16;;;;;;;24.20;13.53;;;7.50;99.90;;;;;;5023720;28;20182;-62
2023/12/16 06:44:42;;;;;;;29.83;12.33;;;7.30;99.90;;;;;;5019229;28;20170;-63
2023/12/16 06:47:08;;;;;;;18.93;10.00;;;7.10;99.90;;;;;;5016667;28;20257;-63
2023/12/16 06:49:33;;;;;;;26.53;11.50;;;7.00;99.90;;;;;;5016830;28;20291;-63
2023/12/16 06:51:59;;;;;;;21.10;9.90;;;7.00;99.90;;;;;;5021481;28;20235;-62
2023/12/16 06:54:24;;;;;;;22.60;11.90;;;7.00;99.90;;;;;;5020891;28;20209;-62
2023/12/16 06:56:50;;;;;;;20.40;9.27;;;7.00;99.90;;;;;;5015812;28;20186;-63
2023/12/16 06:59:17;;;;;;;21.57;11.13;;;7.00;99.90;;;;;;5014313;28;20228;-62
2023/12/16 07:01:42;;;;;;;26.70;10.37;;;7.00;99.90;;;;;;5017771;28;20213;-62
2023/12/16 07:04:08;;;;;;;26.30;10.80;;;7.00;99.90;;;;;;5017982;28;20420;-62
2023/12/16 07:06:34;;;;;;;21.70;8.77;;;7.00;99.90;;;;;;5020289;28;20219;-63
2023/12/16 07:09:00;;;;;;;22.30;10.73;;;7.00;99.90;;;;;;5014747;28;20169;-62
2023/12/16 07:11:25;;;;;;;17.80;8.97;;;7.00;99.90;;;;;;5021996;28;20440;-63
2023/12/16 07:13:51;;;;;;;24.23;11.17;;;7.00;99.90;;;;;;5014653;28;20206;-63
2023/12/16 07:16:16;;;;;;;23.77;12.00;;;7.00;99.90;;;;;;5017000;28;20178;-62
2023/12/16 07:18:42;;;;;;;19.33;9.60;;;7.00;99.90;;;;;;5013138;28;20256;-62
2023/12/16 07:21:08;;;;;;;20.20;7.97;;;7.00;99.90;;;;;;5001472;28;20613;-61
2023/12/16 07:23:34;;;;;;;19.40;9.50;;;7.00;99.90;;;;;;5007748;28;20807;-62
2023/12/16 07:26:00;;;;;;;17.10;7.27;;;7.00;99.90;;;;;;5020358;28;20196;-63
2023/12/16 07:28:26;;;;;;;19.70;7.67;;;7.00;99.90;;;;;;5015239;28;20178;-63
2023/12/16 07:30:52;;;;;;;25.67;8.50;;;7.00;99.90;;;;;;5021440;28;20485;-62
2023/12/16 07:33:17;;;;;;;17.40;9.20;;;7.10;99.90;;;;;;5016055;28;20922;-62
2023/12/16 07:35:44;;;;;;;22.67;8.83;;;7.10;99.90;;;;;;5021549;28;20583;-62
2023/12/16 07:38:09;;;;;;;19.80;9.60;;;7.10;99.90;;;;;;5017241;28;20675;-63
2023/12/16 07:40:36;;;;;;;18.23;7.77;;;7.10;99.90;;;;;;5014732;28;20499;-62
2023/12/16 07:43:02;;;;;;;21.33;9.10;;;7.30;99.90;;;;;;5022162;28;20176;-63
2023/12/16 07:45:28;;;;;;;20.40;9.20;;;7.30;99.90;;;;;;5015724;28;20941;-63
2023/12/16 07:47:54;;;;;;;16.63;8.13;;;7.30;99.90;;;;;;5017662;28;20423;-63
2023/12/16 07:50:20;;;;;;;15.87;8.00;;;7.30;99.90;;;;;;5012214;28;20280;-60
2023/12/16 07:52:46;;;;;;;18.30;8.00;;;7.30;99.90;;;;;;5020553;28;20542;-63
2023/12/16 07:55:13;;;;;;;17.20;8.60;;;7.20;99.90;;;;;;5006804;28;20923;-61
2023/12/16 07:57:38;;;;;;;17.17;8.27;;;7.20;99.90;;;;;;5009722;28;20415;-63
2023/12/16 08:00:05;;;;;;;22.43;8.17;;;7.20;99.90;;;;;;5008208;28;20490;-62
2023/12/16 08:02:33;;;;;;;15.70;7.20;;;7.20;99.90;;;;;;5022326;28;20648;-62
2023/12/16 08:04:59;;;;;;;14.57;8.63;;;7.30;99.90;;;;;;5010706;28;20420;-59
2023/12/16 08:07:25;;;;;;;14.33;7.40;;;7.30;99.90;;;;;;5010402;28;20853;-62
2023/12/16 08:09:51;;;;;;;14.30;7.10;;;7.50;99.90;;;;;;5025305;28;20222;-61
2023/12/16 08:12:16;;;;;;;15.67;8.77;;;7.50;99.90;;;;;;5020065;28;20498;-62
2023/12/16 08:14:42;;;;;;;13.53;6.87;;;7.50;99.90;;;;;;5019074;28;20173;-62
2023/12/16 08:17:07;;;;;;;16.00;9.77;;;7.50;99.90;;;;;;5018283;28;20177;-62
2023/12/16 08:19:33;;;;;;;14.07;7.60;;;7.50;99.90;;;;;;5023938;28;20180;-62
2023/12/16 08:22:00;;;;;;;14.20;8.13;;;7.50;99.90;;;;;;5026058;28;20616;-63
2023/12/16 08:24:26;;;;;;;12.73;6.40;;;7.60;99.90;;;;;;5029831;28;20176;-61
2023/12/16 08:26:51;;;;;;;10.10;6.83;;;7.60;99.90;;;;;;5028363;28;20417;-64
2023/12/16 08:29:18;;;;;;;16.43;7.23;;;7.50;99.90;;;;;;5023667;28;20202;-62
2023/12/16 08:31:45;;;;;;;13.83;6.37;;;7.50;99.90;;;;;;5020088;28;20235;-64
2023/12/16 08:34:10;;;;;;;10.90;6.93;;;7.50;99.90;;;;;;5012890;28;20476;-60
2023/12/16 08:36:36;;;;;;;10.37;6.03;;;7.50;99.90;;;;;;5028769;28;20425;-63
2023/12/16 08:39:01;;;;;;;17.87;6.03;;;7.50;99.90;;;;;;5019240;28;20173;-62
2023/12/16 08:41:27;;;;;;;13.50;7.33;;;7.50;99.90;;;;;;5024035;28;20234;-64
2023/12/16 08:43:53;;;;;;;16.43;6.27;;;7.50;99.90;;;;;;5019948;28;20211;-62
2023/12/16 08:46:23;;;;;;;18.67;5.73;;;7.60;99.90;;;;;;5004718;28;20220;-60
2023/12/16 08:48:48;;;;;;;13.00;5.70;;;7.60;99.90;;;;;;5012582;28;20168;-62
2023/12/16 08:51:22;;;;;;;14.13;6.30;;;7.60;99.90;;;;;;5015923;28;20435;-61
2023/12/16 08:53:48;;;;;;;12.37;6.00;;;7.60;99.90;;;;;;5018465;28;20656;-63
2023/12/16 08:56:17;;;;;;;11.33;5.67;;;7.70;99.90;;;;;;5009429;28;20437;-64
2023/12/16 08:58:44;;;;;;;7.77;5.30;;;7.70;99.90;;;;;;5021075;28;20176;-62
2023/12/16 09:01:10;;;;;;;11.53;4.97;;;7.70;99.90;;;;;;5023943;28;20512;-63
2023/12/16 09:03:36;;;;;;;12.03;6.60;;;7.80;99.90;;;;;;5010819;28;20437;-63
2023/12/16 09:06:02;;;;;;;11.83;6.17;;;7.90;99.90;;;;;;5009631;28;20578;-63
2023/12/16 09:08:27;;;;;;;9.60;4.83;;;7.80;99.90;;;;;;5020349;28;20512;-62
2023/12/16 09:10:53;;;;;;;8.97;6.97;;;7.80;99.90;;;;;;4999665;28;20205;-60
2023/12/16 09:13:19;;;;;;;13.90;5.20;;;7.80;99.90;;;;;;5022039;28;20185;-63
2023/12/16 09:15:44;;;;;;;11.27;4.97;;;7.80;99.90;;;;;;5005661;28;20337;-63
2023/12/16 09:18:11;;;;;;;11.07;4.67;;;7.90;99.90;;;;;;5018667;28;20176;-63
2023/12/16 09:20:37;;;;;;;6.67;4.40;;;7.90;99.90;;;;;;5007698;28;20562;-63
2023/12/16 09:23:03;;;;;;;8.20;4.90;;;7.90;99.90;;;;;;5026354;28;20409;-62
2023/12/16 09:25:29;;;;;;;10.57;4.73;;;7.90;99.90;;;;;;5029296;28;20417;-62
2023/12/16 09:27:54;;;;;;;11.17;4.77;;;8.00;99.90;;;;;;5022866;28;20215;-62
2023/12/16 09:30:20;;;;;;;6.70;4.27;;;8.00;99.90;;;;;;5026839;28;20211;-62
2023/12/16 09:32:46;;;;;;;10.50;4.23;;;8.10;99.90;;;;;;5024121;28;20281;-61
2023/12/16 09:35:11;;;;;;;12.50;4.00;;;8.10;99.90;;;;;;5026515;28;20215;-63
2023/12/16 09:37:37;;;;;;;8.20;3.97;;;8.10;99.90;;;;;;5024818;28;20293;-62
2023/12/16 09:40:03;;;;;;;7.43;3.70;;;8.10;99.90;;;;;;5015413;28;20668;-62
2023/12/16 09:42:29;;;;;;;8.07;3.70;;;8.10;99.90;;;;;;5023687;28;20188;-63
2023/12/16 09:45:00;;;;;;;12.93;4.87;;;8.20;99.90;;;;;;5016503;28;20451;-61
2023/12/16 09:47:25;;;;;;;12.83;6.90;;;8.30;99.90;;;;;;5022184;28;20426;-63
2023/12/16 09:49:53;;;;;;;12.63;5.27;;;8.40;99.90;;;;;;5017049;28;20782;-62
2023/12/16 09:52:18;;;;;;;10.30;3.80;;;8.30;99.90;;;;;;5026395;28;20559;-64
2023/12/16 09:54:44;;;;;;;9.40;3.70;;;8.50;99.90;;;;;;5019900;28;20516;-62
2023/12/16 09:57:13;;;;;;;9.40;4.53;;;8.40;99.90;;;;;;5024826;28;20209;-62
2023/12/16 09:59:41;;;;;;;5.67;3.57;;;8.40;99.90;;;;;;5022123;28;20594;-61
2023/12/16 10:02:23;;;;;;;17.93;9.93;;;8.50;99.90;;;;;;5021246;28;20463;-64
2023/12/16 10:04:51;;;;;;;9.10;4.07;;;8.60;99.90;;;;;;5018815;28;20416;-65
2023/12/16 10:07:17;;;;;;;10.33;3.60;;;8.70;99.90;;;;;;5012885;28;20416;-62
2023/12/16 10:09:42;;;;;;;8.10;3.50;;;8.50;99.90;;;;;;5025518;28;20957;-62
2023/12/16 10:12:09;;;;;;;8.47;4.00;;;8.50;99.90;;;;;;5012104;28;20595;-66
2023/12/16 10:14:52;;;;;;;6.13;3.80;;;8.50;99.90;;;;;;5026002;28;20180;-61
2023/12/16 10:17:20;;;;;;;11.43;4.70;;;8.50;99.90;;;;;;5017543;28;20933;-60
2023/12/16 10:19:46;;;;;;;4.73;3.27;;;8.60;99.90;;;;;;5010428;28;20467;-62
2023/12/16 10:22:17;;;;;;;8.17;4.03;;;8.50;99.90;;;;;;5022648;28;20449;-66
2023/12/16 10:24:44;;;;;;;8.20;4.50;;;8.40;99.90;;;;;;5017709;28;21016;-65
2023/12/16 10:27:10;;;;;;;11.00;3.23;;;8.50;99.90;;;;;;5016848;28;20924;-65
2023/12/16 10:29:39;;;;;;;10.20;3.30;;;8.30;99.90;;;;;;5020239;28;20449;-62
2023/12/16 10:32:08;;;;;;;6.67;3.47;;;8.30;99.90;;;;;;5020459;28;20425;-61
2023/12/16 10:34:33;;;;;;;17.53;4.50;;;8.30;99.90;;;;;;5022330;28;20409;-62
2023/12/16 10:37:09;;;;;;;9.83;3.73;;;8.30;99.90;;;;;;5021301;28;20414;-60
2023/12/16 10:39:35;;;;;;;11.73;3.40;;;8.40;99.90;;;;;;5006067;28;20287;-65
2023/12/16 10:42:02;;;;;;;24.27;4.40;;;8.50;99.90;;;;;;5011741;28;20519;-62
2023/12/16 10:44:27;;;;;;;10.27;4.90;;;8.50;99.90;;;;;;5012533;28;20813;-65
2023/12/16 10:46:54;;;;;;;8.97;3.70;;;8.50;99.90;;;;;;5003854;28;20426;-66
2023/12/16 10:49:31;;;;;;;8.87;4.50;;;8.50;99.90;;;;;;5012733;28;20528;-63
2023/12/16 10:52:09;;;;;;;14.70;6.00;;;8.50;99.90;;;;;;5017250;28;20447;-63
2023/12/16 10:54:47;;;;;;;9.70;3.87;;;8.50;99.90;;;;;;5015865;28;20426;-62
2023/12/16 10:57:34;;;;;;;6.60;3.23;;;8.60;99.90;;;;;;5003290;28;20433;-63
2023/12/16 11:00:07;;;;;;;7.83;4.30;;;8.60;99.90;;;;;;5017509;28;20449;-62
2023/12/16 11:03:28;;;;;;;9.30;4.40;;;8.70;99.90;;;;;;5018973;28;20476;-63
2023/12/16 11:06:21;;;;;;;9.20;3.20;;;8.70;99.90;;;;;;4968097;28;20467;-63
2023/12/16 11:08:47;;;;;;;11.13;4.27;;;8.70;99.90;;;;;;5015130;28;20509;-62
2023/12/16 11:11:15;;;;;;;7.77;4.17;;;8.70;99.90;;;;;;5019602;28;20434;-63
2023/12/16 11:13:41;;;;;;;8.57;3.73;;;8.80;99.90;;;;;;5020023;28;20458;-63
2023/12/16 11:16:17;;;;;;;9.87;3.83;;;8.80;99.90;;;;;;5015436;28;20843;-63
2023/12/16 11:18:45;;;;;;;8.30;4.47;;;8.90;99.90;;;;;;5021723;28;20594;-63
2023/12/16 11:21:14;;;;;;;9.87;4.30;;;8.80;99.90;;;;;;5014486;28;20548;-63
2023/12/16 11:23:46;;;;;;;8.97;3.20;;;8.80;99.90;;;;;;5021826;28;20421;-69
2023/12/16 11:26:11;;;;;;;9.60;3.33;;;8.90;99.90;;;;;;5019899;28;20402;-63
2023/12/16 11:28:37;;;;;;;6.50;4.07;;;8.90;99.90;;;;;;5023033;28;20470;-66
2023/12/16 11:31:03;;;;;;;9.83;3.17;;;9.00;99.90;;;;;;5017638;28;21007;-64
2023/12/16 11:33:46;;;;;;;10.80;2.97;;;9.00;99.90;;;;;;5017788;28;20181;-64
2023/12/16 11:36:14;;;;;;;7.93;3.10;;;9.00;99.90;;;;;;5021230;28;20423;-64
2023/12/16 11:38:42;;;;;;;6.90;3.37;;;9.00;99.90;;;;;;5020449;28;20539;-66
2023/12/16 11:41:37;;;;;;;6.83;3.17;;;9.00;99.90;;;;;;5017776;28;20461;-64
2023/12/16 11:44:03;;;;;;;7.70;4.17;;;8.80;99.90;;;;;;5016278;28;20407;-64
2023/12/16 11:46:40;;;;;;;9.60;3.43;;;8.70;99.90;;;;;;5021302;28;20399;-64
2023/12/16 11:49:12;;;;;;;6.27;3.80;;;8.80;99.90;;;;;;5022759;28;20481;-63
2023/12/16 11:51:38;;;;;;;8.33;3.10;;;8.80;99.90;;;;;;5013907;28;20426;-63
2023/12/16 11:54:05;;;;;;;9.00;3.53;;;8.90;99.90;;;;;;5021765;28;20464;-64
2023/12/16 11:56:33;;;;;;;9.33;3.30;;;8.80;99.90;;;;;;5017115;28;20410;-64
2023/12/16 11:58:59;;;;;;;7.93;2.80;;;8.90;99.90;;;;;;5029603;28;20808;-63
2023/12/16 12:01:26;;;;;;;8.97;2.83;;;9.00;99.90;;;;;;5018274;28;20811;-63
2023/12/16 12:03:53;;;;;;;11.83;3.80;;;9.00;99.90;;;;;;5026462;28;20548;-64
2023/12/16 12:06:19;;;;;;;9.13;3.63;;;8.90;99.90;;;;;;5022464;28;20946;-62
2023/12/16 12:08:46;;;;;;;10.80;4.23;;;8.90;99.90;;;;;;5022090;28;20422;-66
2023/12/16 12:11:12;;;;;;;16.23;3.60;;;8.90;99.90;;;;;;5023791;28;20438;-62
2023/12/16 12:13:38;;;;;;;6.10;3.40;;;8.90;99.90;;;;;;5028998;28;20425;-65
2023/12/16 12:16:05;;;;;;;7.33;3.40;;;9.00;99.90;;;;;;5029845;28;20417;-67
2023/12/16 12:18:31;;;;;;;8.07;3.50;;;8.80;99.90;;;;;;5028390;28;20187;-65
2023/12/16 12:20:56;;;;;;;11.23;4.70;;;8.80;99.90;;;;;;5022836;28;20462;-64
2023/12/16 12:23:22;;;;;;;8.30;3.90;;;8.80;99.90;;;;;;5022106;28;20623;-63
2023/12/16 12:25:55;;;;;;;4.17;2.70;;;8.80;99.90;;;;;;5005803;28;20175;-65
2023/12/16 12:28:21;;;;;;;6.60;3.53;;;8.70;99.90;;;;;;5024168;28;20180;-66
2023/12/16 12:30:47;;;;;;;8.10;3.27;;;8.80;99.90;;;;;;5009077;28;20464;-62
2023/12/16 12:33:12;;;;;;;11.13;4.50;;;8.70;99.90;;;;;;5014585;28;20932;-67
2023/12/16 12:35:38;;;;;;;10.20;3.67;;;8.70;99.90;;;;;;5014791;28;20175;-63
2023/12/16 12:38:03;;;;;;;10.00;3.33;;;8.70;99.90;;;;;;5024692;28;20206;-62
2023/12/16 12:40:29;;;;;;;5.00;2.53;;;8.70;99.90;;;;;;5026265;28;20686;-63